createdAt,value
2022-10-28T00:00:24.349Z,100.00
2022-10-28T00:03:45.031Z,100.00
2022-10-28T00:07:01.247Z,100.00
2022-10-28T00:10:18.644Z,100.00
2022-10-28T00:13:34.722Z,100.00
2022-10-28T00:16:52.807Z,100.00
2022-10-28T00:20:09.260Z,100.00
2022-10-28T00:23:25.297Z,100.00
2022-10-28T00:26:44.319Z,100.00
2022-10-28T00:30:00.843Z,100.00
2022-10-28T00:33:17.669Z,100.00
2022-10-28T00:36:39.687Z,100.00
2022-10-28T00:39:55.784Z,100.00
2022-10-28T00:43:12.213Z,100.00
2022-10-28T00:46:36.215Z,100.00
2022-10-28T00:49:54.206Z,100.00
2022-10-28T00:53:15.140Z,100.00
2022-10-28T00:56:37.551Z,100.00
2022-10-28T00:59:57.657Z,100.00
2022-10-28T01:03:14.772Z,100.00
2022-10-28T01:06:37.669Z,100.00
2022-10-28T01:09:57.738Z,100.00
2022-10-28T01:13:19.782Z,100.00
2022-10-28T01:16:41.807Z,100.00
2022-10-28T01:20:31.734Z,100.00
2022-10-28T01:23:57.365Z,100.00
2022-10-28T01:28:07.130Z,100.00
2022-10-28T01:31:35.076Z,100.00
2022-10-28T01:34:57.130Z,100.00
2022-10-28T01:38:29.506Z,100.00
2022-10-28T01:41:52.134Z,100.00
2022-10-28T01:45:15.969Z,100.00
2022-10-28T01:51:58.942Z,100.00
2022-10-28T01:55:20.908Z,100.00
2022-10-28T01:58:40.269Z,100.00
2022-10-28T02:01:57.844Z,100.00
2022-10-28T02:05:46.489Z,100.00
2022-10-28T02:09:25.816Z,100.00
2022-10-28T02:12:45.100Z,100.00
2022-10-28T02:16:05.928Z,100.00
2022-10-28T02:19:30.396Z,100.00
2022-10-28T02:22:53.471Z,100.00
2022-10-28T02:26:14.684Z,100.00
2022-10-28T02:29:37.088Z,100.00
2022-10-28T02:32:57.663Z,100.00
2022-10-28T02:36:18.763Z,100.00
2022-10-28T02:39:39.437Z,100.00
2022-10-28T02:42:59.884Z,100.00
2022-10-28T02:46:17.915Z,100.00
2022-10-28T02:49:36.890Z,100.00
2022-10-28T02:52:57.412Z,100.00
2022-10-28T02:56:16.232Z,100.00
2022-10-28T02:59:34.531Z,100.00
2022-10-28T03:02:52.213Z,100.00
2022-10-28T03:06:11.039Z,100.00
2022-10-28T03:09:27.116Z,100.00
2022-10-28T03:12:43.209Z,100.00
2022-10-28T03:16:04.439Z,100.00
2022-10-28T03:19:20.787Z,100.00
2022-10-28T03:22:39.636Z,100.00
2022-10-28T03:25:55.905Z,100.00
2022-10-28T03:29:11.999Z,100.00
2022-10-28T03:32:28.363Z,100.00
2022-10-28T03:35:45.822Z,100.00
2022-10-28T03:39:01.920Z,100.00
2022-10-28T03:42:18.072Z,100.00
2022-10-28T03:45:34.208Z,100.00
2022-10-28T03:48:50.701Z,100.00
2022-10-28T03:52:07.063Z,100.00
2022-10-28T03:55:24.545Z,100.00
2022-10-28T03:58:41.424Z,100.00
2022-10-28T04:01:57.702Z,100.00
2022-10-28T04:05:15.289Z,100.00
2022-10-28T04:08:31.591Z,100.00
2022-10-28T04:11:47.721Z,100.00
2022-10-28T04:15:03.913Z,100.00
2022-10-28T04:18:20.540Z,100.00
2022-10-28T04:21:37.829Z,100.00
2022-10-28T04:24:58.091Z,100.00
2022-10-28T04:28:14.848Z,100.00
2022-10-28T04:31:31.050Z,100.00
2022-10-28T04:35:00.022Z,100.00
2022-10-28T04:38:18.251Z,100.00
2022-10-28T04:41:34.727Z,100.00
2022-10-28T04:44:50.706Z,100.00
2022-10-28T04:48:08.725Z,100.00
2022-10-28T04:51:25.013Z,100.00
2022-10-28T04:54:42.227Z,100.00
2022-10-28T04:58:12.372Z,100.00
2022-10-28T05:01:30.452Z,100.00
2022-10-28T05:04:47.169Z,100.00
2022-10-28T05:08:03.252Z,100.00
2022-10-28T05:11:19.860Z,100.00
2022-10-28T05:14:38.601Z,100.00
2022-10-28T05:17:55.763Z,100.00
2022-10-28T05:21:13.132Z,100.00
2022-10-28T05:24:32.858Z,100.00
2022-10-28T05:27:51.835Z,100.00
2022-10-28T05:31:10.176Z,100.00
2022-10-28T05:34:27.018Z,100.00
2022-10-28T05:37:48.545Z,100.00
2022-10-28T05:41:11.219Z,100.00
2022-10-28T05:44:33.981Z,100.00
2022-10-28T05:47:56.043Z,100.00
2022-10-28T05:51:16.675Z,100.00
2022-10-28T05:54:34.409Z,100.00
2022-10-28T05:57:52.050Z,100.00
2022-10-28T06:01:42.636Z,100.00
2022-10-28T06:05:08.399Z,100.00
2022-10-28T06:09:04.019Z,100.00
2022-10-28T06:12:19.276Z,100.00
2022-10-28T06:15:43.135Z,100.00
2022-10-28T06:18:59.716Z,100.00
2022-10-28T06:22:22.530Z,100.00
2022-10-28T06:25:40.021Z,100.00
2022-10-28T06:28:57.335Z,100.00
2022-10-28T06:32:16.915Z,100.00
2022-10-28T06:35:37.021Z,100.00
2022-10-28T06:38:53.821Z,100.00
2022-10-28T06:42:11.132Z,100.00
2022-10-28T06:45:29.579Z,100.00
2022-10-28T06:48:47.989Z,100.00
2022-10-28T06:52:04.301Z,100.00
2022-10-28T06:55:21.512Z,100.00
2022-10-28T06:58:46.964Z,100.00
2022-10-28T07:02:06.242Z,100.00
2022-10-28T07:05:27.356Z,100.00
2022-10-28T07:08:48.154Z,100.00
2022-10-28T07:12:07.120Z,100.00
2022-10-28T07:58:12.446Z,100.00
2022-10-28T08:01:46.608Z,100.00
2022-10-28T08:05:25.389Z,100.00
2022-10-28T08:14:25.598Z,100.00
2022-10-28T08:18:04.145Z,100.00
2022-10-28T08:21:40.300Z,100.00
2022-10-28T08:25:14.574Z,100.00
2022-10-28T08:28:58.531Z,100.00
2022-10-28T08:32:24.625Z,100.00
2022-10-28T08:35:53.799Z,100.00
2022-10-28T08:39:11.862Z,100.00
2022-10-28T08:42:47.872Z,100.00
2022-10-28T08:46:09.620Z,100.00
2022-10-28T08:49:30.767Z,100.00
2022-10-28T08:52:52.264Z,100.00
2022-10-28T08:56:16.439Z,100.00
2022-10-28T08:59:37.387Z,100.00
2022-10-28T09:09:26.926Z,100.00
2022-10-28T09:12:49.615Z,100.00
2022-10-28T09:16:13.724Z,100.00
2022-10-28T09:19:44.832Z,100.00
2022-10-28T09:23:08.130Z,100.00
2022-10-28T09:26:52.382Z,100.00
2022-10-28T09:30:20.454Z,100.00
2022-10-28T09:33:53.940Z,100.00
2022-10-28T09:37:16.873Z,100.00
2022-10-28T09:40:36.522Z,100.00
2022-10-28T09:43:56.693Z,100.00
2022-10-28T09:47:21.227Z,100.00
2022-10-28T09:50:40.204Z,100.00
2022-10-28T09:54:01.392Z,100.00
2022-10-28T09:57:17.692Z,100.00
2022-10-28T10:00:33.990Z,100.00
2022-10-28T10:03:50.724Z,100.00
2022-10-28T10:07:11.504Z,100.00
2022-10-28T10:10:32.358Z,100.00
2022-10-28T10:13:51.174Z,100.00
2022-10-28T10:17:11.430Z,100.00
2022-10-28T10:20:28.921Z,100.00
2022-10-28T10:23:46.231Z,100.00
2022-10-28T10:27:03.654Z,100.00
2022-10-28T10:30:43.629Z,100.00
2022-10-28T10:34:05.471Z,100.00
2022-10-28T10:37:28.169Z,100.00
2022-10-28T10:40:49.350Z,100.00
2022-10-28T10:47:31.088Z,99.27
2022-10-28T10:50:48.348Z,99.42
2022-10-28T10:54:06.828Z,100.00
2022-10-28T10:57:28.431Z,100.00
2022-10-28T11:00:50.149Z,99.44
2022-10-28T11:04:10.266Z,100.00
2022-10-28T11:07:26.428Z,100.00
2022-10-28T11:10:43.100Z,97.31
2022-10-28T11:14:09.980Z,100.00
2022-10-28T11:17:42.999Z,98.82
2022-10-28T11:21:04.422Z,100.00
2022-10-28T11:24:37.507Z,100.00
2022-10-28T11:28:04.599Z,99.76
2022-10-28T11:31:38.280Z,100.00
2022-10-28T11:35:26.327Z,98.01
2022-10-28T11:38:56.564Z,97.56
2022-10-28T11:42:24.704Z,100.00
2022-10-28T11:45:48.697Z,100.00
2022-10-28T11:49:48.619Z,100.00
2022-10-28T11:53:36.570Z,100.00
2022-10-28T11:56:58.298Z,100.00
2022-10-28T12:00:36.294Z,100.00
2022-10-28T12:04:10.694Z,100.00
2022-10-28T12:07:44.370Z,98.02
2022-10-28T12:11:21.981Z,96.91
2022-10-28T12:14:46.002Z,100.00
2022-10-28T12:18:07.726Z,100.00
2022-10-28T12:21:31.173Z,100.00
2022-10-28T12:24:51.334Z,99.01
2022-10-28T12:28:12.065Z,97.50
2022-10-28T12:31:35.885Z,97.71
2022-10-28T12:34:56.717Z,100.00
2022-10-28T12:38:18.662Z,98.25
2022-10-28T12:44:59.779Z,96.96
2022-10-28T12:48:22.024Z,96.77
2022-10-28T12:51:42.732Z,96.18
2022-10-28T12:55:16.915Z,97.24
2022-10-28T12:58:41.777Z,98.54
2022-10-28T13:02:01.975Z,97.56
2022-10-28T13:05:37.084Z,97.28
2022-10-28T13:09:39.361Z,95.06
2022-10-28T13:13:53.172Z,94.29
2022-10-28T13:17:33.180Z,95.97
2022-10-28T13:20:57.099Z,97.23
2022-10-28T13:24:25.988Z,95.63
2022-10-28T13:27:47.190Z,96.04
2022-10-28T13:31:17.258Z,95.84
2022-10-28T13:34:42.010Z,95.71
2022-10-28T13:38:02.951Z,95.37
2022-10-28T13:41:44.906Z,94.46
2022-10-28T13:45:01.789Z,95.24
2022-10-28T13:49:01.399Z,94.57
2022-10-28T13:52:28.876Z,95.91
2022-10-28T13:55:54.368Z,94.18
2022-10-28T13:59:20.572Z,95.07
2022-10-28T14:02:45.577Z,95.97
2022-10-28T14:06:05.201Z,96.42
2022-10-28T14:09:34.588Z,96.75
2022-10-28T14:13:03.760Z,97.23
2022-10-28T14:16:34.693Z,97.27
2022-10-28T14:19:55.696Z,98.84
2022-10-28T14:23:47.027Z,100.00
2022-10-28T14:27:49.945Z,100.00
2022-10-28T14:36:34.231Z,100.00
2022-10-28T14:39:58.715Z,100.00
2022-10-28T14:43:58.939Z,100.00
2022-10-28T14:47:58.760Z,100.00
2022-10-28T14:51:20.589Z,100.00
2022-10-28T14:54:44.174Z,100.00
2022-10-28T14:58:03.543Z,100.00
2022-10-28T15:01:43.311Z,100.00
2022-10-28T15:05:14.794Z,100.00
2022-10-28T15:09:13.074Z,100.00
2022-10-28T15:12:35.850Z,100.00
2022-10-28T15:16:03.820Z,100.00
2022-10-28T15:19:27.614Z,100.00
2022-10-28T15:22:46.654Z,100.00
2022-10-28T15:26:15.268Z,100.00
2022-10-28T15:29:31.959Z,100.00
2022-10-28T15:32:47.988Z,100.00
2022-10-28T15:36:18.492Z,100.00
2022-10-28T15:39:46.607Z,100.00
2022-10-28T15:43:09.609Z,100.00
2022-10-28T15:46:26.620Z,100.00
2022-10-28T15:49:47.212Z,100.00
2022-10-28T15:53:21.790Z,100.00
2022-10-28T16:32:42.573Z,100.00
2022-10-28T16:35:58.720Z,100.00
2022-10-28T16:39:19.611Z,100.00
2022-10-28T16:42:36.010Z,100.00
2022-10-28T16:45:52.364Z,100.00
2022-10-28T16:49:08.830Z,100.00
2022-10-28T16:52:28.333Z,100.00
2022-10-28T16:55:47.498Z,100.00
2022-10-28T16:59:04.153Z,100.00
2022-10-28T17:02:26.379Z,100.00
2022-10-28T17:05:43.558Z,100.00
2022-10-28T17:09:03.246Z,100.00
2022-10-28T17:12:23.378Z,100.00
2022-10-28T17:18:39.819Z,100.00
2022-10-28T17:21:58.413Z,100.00
2022-10-28T17:42:29.181Z,100.00
2022-10-28T17:45:45.540Z,100.00
2022-10-28T17:49:06.541Z,100.00
2022-10-28T17:52:27.568Z,100.00
2022-10-28T17:55:49.585Z,100.00
2022-10-28T17:59:07.002Z,100.00
2022-10-28T18:02:28.894Z,100.00
2022-10-28T18:05:47.291Z,100.00
2022-10-28T18:09:04.689Z,100.00
2022-10-28T18:12:21.150Z,100.00
2022-10-28T18:15:46.705Z,100.00
2022-10-28T18:19:05.590Z,100.00
2022-10-28T18:25:42.726Z,100.00
2022-10-28T18:28:59.400Z,100.00
2022-10-28T18:32:52.184Z,100.00
2022-10-28T18:36:14.764Z,100.00
2022-10-28T18:39:31.905Z,100.00
2022-10-28T18:42:50.558Z,100.00
2022-10-28T18:46:16.933Z,100.00
2022-10-28T18:49:38.404Z,100.00
2022-10-28T18:52:58.678Z,100.00
2022-10-28T18:56:18.746Z,100.00
2022-10-28T18:59:39.915Z,100.00
2022-10-28T19:02:56.937Z,100.00
2022-10-28T19:06:16.685Z,100.00
2022-10-28T19:09:33.048Z,100.00
2022-10-28T19:12:53.006Z,100.00
2022-10-28T19:16:09.294Z,100.00
2022-10-28T20:19:21.691Z,100.00
2022-10-28T20:22:42.193Z,100.00
2022-10-28T20:26:04.745Z,100.00
2022-10-28T20:29:21.029Z,100.00
2022-10-28T20:32:37.299Z,100.00
2022-10-28T20:35:53.583Z,100.00
2022-10-28T20:39:12.644Z,100.00
2022-10-28T20:42:31.316Z,100.00
2022-10-28T20:45:48.265Z,100.00
2022-10-28T20:49:05.026Z,100.00
2022-10-28T20:52:22.647Z,100.00
2022-10-28T20:55:39.130Z,100.00
2022-10-28T20:58:55.726Z,100.00
2022-10-28T21:02:12.144Z,100.00
2022-10-28T21:05:30.887Z,100.00
2022-10-28T21:08:47.607Z,100.00
2022-10-28T21:12:04.097Z,100.00
2022-10-28T21:15:22.459Z,100.00
2022-10-28T21:18:38.861Z,100.00
2022-10-28T21:21:55.194Z,100.00
2022-10-28T21:25:12.955Z,100.00
2022-10-28T21:28:29.498Z,100.00
2022-10-28T21:31:45.791Z,100.00
2022-10-28T21:35:02.250Z,100.00
2022-10-28T21:38:18.935Z,100.00
2022-10-28T21:41:35.067Z,100.00
2022-10-28T21:44:51.297Z,100.00
2022-10-28T21:48:07.403Z,100.00
2022-10-28T21:51:25.138Z,100.00
2022-10-28T21:54:43.153Z,100.00
2022-10-28T21:57:59.395Z,100.00
2022-10-28T22:01:18.420Z,100.00
2022-10-28T22:04:37.613Z,100.00
2022-10-28T22:07:54.376Z,100.00
2022-10-28T22:11:15.893Z,100.00
2022-10-28T22:14:32.956Z,100.00
2022-10-28T22:17:49.164Z,100.00
2022-10-28T22:21:11.937Z,100.00
2022-10-28T22:24:28.008Z,100.00
2022-10-28T22:27:45.793Z,100.00
2022-10-28T22:31:07.285Z,100.00
2022-10-28T22:34:23.393Z,100.00
2022-10-28T22:37:39.435Z,100.00
2022-10-28T22:40:55.800Z,100.00
2022-10-28T22:44:12.418Z,100.00
2022-10-28T22:47:28.432Z,100.00
2022-10-28T22:50:44.576Z,100.00
2022-10-28T22:54:00.745Z,100.00
2022-10-28T22:57:16.680Z,100.00
2022-10-28T23:00:32.881Z,100.00
2022-10-28T23:03:51.223Z,100.00
2022-10-28T23:07:07.433Z,100.00
2022-10-28T23:10:24.059Z,100.00
2022-10-28T23:13:40.418Z,100.00
2022-10-28T23:16:57.715Z,100.00
2022-10-28T23:20:16.257Z,100.00
2022-10-28T23:23:32.385Z,100.00
2022-10-28T23:26:50.170Z,100.00
2022-10-28T23:30:06.714Z,100.00
2022-10-28T23:33:25.389Z,100.00
2022-10-28T23:36:41.556Z,100.00
2022-10-28T23:39:57.607Z,100.00
2022-10-28T23:43:13.745Z,100.00
2022-10-28T23:46:33.635Z,100.00
2022-10-28T23:49:47.781Z,100.00
2022-10-28T23:53:06.790Z,100.00
2022-10-28T23:56:22.826Z,100.00
2022-10-28T23:59:38.884Z,100.00
